Time;durP1;ratioP1;P1;durP2;ratioP2;P2;SDS_P1;SDS_P2;PMS_P1;PMS_P2;Temp;Humidity;BMP_temperature;BMP_pressure;BME280_temperature;BME280_humidity;BME280_pressure;Samples;Min_cycle;Max_cycle;Signal;HPM_P1;HPM_P2
2022/11/21 00:00:10;;;;;;;46.63;20.65;;;;;;;2.54;64.06;99217.00;7752120;32;36837;-84
2022/11/21 00:04:26;;;;;;;44.22;19.95;;;;;;;2.61;62.88;99212.34;7765533;32;37260;-84
2022/11/21 00:08:43;;;;;;;50.20;22.45;;;;;;;2.14;64.77;99211.44;7765807;32;39221;-84
2022/11/21 00:12:59;;;;;;;51.72;19.95;;;;;;;2.31;65.34;99222.34;7751490;32;39947;-84
2022/11/21 00:17:15;;;;;;;78.95;22.25;;;;;;;2.37;65.03;99226.81;7751819;32;38642;-84
2022/11/21 00:21:32;;;;;;;47.35;21.75;;;;;;;2.90;63.63;99222.38;7751496;32;37264;-84
2022/11/21 00:25:48;;;;;;;53.97;22.50;;;;;;;2.75;63.81;99202.16;7750729;32;39286;-85
2022/11/21 00:30:06;;;;;;;253.43;25.10;;;;;;;2.55;63.79;99207.91;7765160;32;40308;-85
2022/11/21 00:34:22;;;;;;;49.90;20.42;;;;;;;3.01;62.97;99189.25;7764954;32;37768;-85
2022/11/21 00:38:38;;;;;;;79.18;19.23;;;;;;;2.01;66.79;99174.84;7764970;32;38023;-84
2022/11/21 00:42:54;;;;;;;39.22;17.05;;;;;;;2.11;66.38;99158.97;7765365;32;39616;-84
2022/11/21 00:47:11;;;;;;;58.10;18.10;;;;;;;2.15;65.56;99153.94;7765291;32;39614;-85
2022/11/21 00:51:27;;;;;;;54.92;19.67;;;;;;;2.67;63.67;99155.94;7765087;32;37574;-84
2022/11/21 00:55:43;;;;;;;57.70;18.48;;;;;;;2.32;65.10;99164.84;7765210;32;37288;-82
2022/11/21 00:59:59;;;;;;;98.85;17.87;;;;;;;2.70;64.07;99158.16;7765168;32;39459;-84
2022/11/21 01:04:15;;;;;;;43.80;18.17;;;;;;;2.44;65.39;99152.19;7764991;32;40764;-85
2022/11/21 01:08:34;;;;;;;62.72;17.75;;;;;;;2.80;64.91;99144.91;7764725;32;38693;-84
2022/11/21 01:12:50;;;;;;;33.78;16.48;;;;;;;2.84;64.60;99135.31;7764919;32;36257;-84
2022/11/21 01:17:06;;;;;;;45.60;17.75;;;;;;;2.65;64.31;99126.56;7765043;32;39358;-84
2022/11/21 01:21:23;;;;;;;34.38;16.00;;;;;;;2.98;63.59;99123.22;7764845;32;40819;-83
2022/11/21 01:25:39;;;;;;;34.88;16.58;;;;;;;2.84;63.80;99132.63;7764517;32;37840;-85
2022/11/21 01:29:56;;;;;;;70.28;17.67;;;;;;;3.00;63.29;99134.56;7764813;32;37141;-84
2022/11/21 01:34:13;;;;;;;79.75;17.73;;;;;;;3.05;63.18;99127.66;7764559;32;40115;-83
2022/11/21 01:38:31;;;;;;;32.03;16.15;;;;;;;2.84;63.52;99140.69;7764147;32;39875;-85
2022/11/21 01:42:54;;;;;;;34.13;16.27;;;;;;;2.70;64.63;99134.75;7764480;32;37840;-85
2022/11/21 01:47:11;;;;;;;143.00;22.00;;;;;;;2.77;64.61;99134.63;7764467;32;37738;-85
2022/11/21 01:51:54;;;;;;;191.55;20.42;;;;;;;2.62;65.75;99129.72;7764322;32;40049;-84
2022/11/21 01:56:10;;;;;;;374.77;27.30;;;;;;;2.88;64.83;99149.09;7764104;32;41438;-85
2022/11/21 02:00:30;;;;;;;105.80;19.25;;;;;;;2.25;66.97;99138.84;7764189;32;38419;-84
2022/11/21 02:04:47;;;;;;;192.95;21.45;;;;;;;2.67;65.65;99123.63;7750980;32;37091;-84
2022/11/21 02:09:04;;;;;;;44.92;18.52;;;;;;;2.86;64.96;99127.81;7750234;32;40132;-85
2022/11/21 02:13:21;;;;;;;67.22;17.75;;;;;;;2.45;65.64;99132.31;7763829;32;40107;-85
2022/11/21 02:17:37;;;;;;;68.85;18.30;;;;;;;2.84;64.71;99126.41;7763784;32;37907;-84
2022/11/21 02:22:06;;;;;;;52.00;18.77;;;;;;;2.93;64.06;99122.28;7763676;32;37136;-85
2022/11/21 02:26:22;;;;;;;63.30;16.90;;;;;;;2.66;65.45;99128.22;7755850;32;222237;-84
2022/11/21 02:30:40;;;;;;;278.90;24.08;;;;;;;2.59;66.19;99128.31;7749319;32;40984;-84
2022/11/21 02:34:56;;;;;;;96.63;20.50;;;;;;;2.42;67.00;99127.41;7762793;32;37587;-84
2022/11/21 02:39:22;;;;;;;119.43;18.73;;;;;;;2.67;65.78;99134.41;7763218;32;36939;-84
2022/11/21 02:43:46;;;;;;;35.00;15.48;;;;;;;2.97;64.52;99140.44;7762989;32;39783;-84
2022/11/21 02:48:02;;;;;;;86.63;17.95;;;;;;;2.93;64.40;99135.75;7750042;32;41219;-84
2022/11/21 02:52:19;;;;;;;42.65;15.20;;;;;;;2.73;64.97;99123.50;7765575;32;38803;-85
2022/11/21 02:56:36;;;;;;;73.22;15.80;;;;;;;2.63;65.63;99134.88;7766073;32;37080;-84
2022/11/21 03:00:54;;;;;;;73.82;18.15;;;;;;;2.51;65.68;99136.75;7766632;32;39432;-85
2022/11/21 03:05:12;;;;;;;177.10;21.10;;;;;;;2.33;65.96;99132.31;7766314;32;40007;-84
2022/11/21 03:09:29;;;;;;;132.30;18.12;;;;;;;1.73;67.25;99129.78;7752871;32;36962;-84
2022/11/21 03:13:45;;;;;;;117.05;17.42;;;;;;;2.33;65.45;99118.03;7765833;32;37055;-84
2022/11/21 03:18:02;;;;;;;127.40;16.05;;;;;;;2.01;66.41;99118.38;7766401;32;39342;-85
2022/11/21 03:22:18;;;;;;;222.88;20.92;;;;;;;1.95;66.80;99109.37;7766238;32;39917;-85
2022/11/21 03:26:34;;;;;;;121.03;19.12;;;;;;;2.17;65.85;99123.06;7765999;32;37518;-85
2022/11/21 03:30:51;;;;;;;203.48;21.60;;;;;;;1.74;66.50;99121.47;7766315;32;37833;-84
2022/11/21 03:35:07;;;;;;;58.75;17.02;;;;;;;1.58;67.30;99117.59;7751676;32;39338;-84
2022/11/21 03:39:23;;;;;;;91.10;18.00;;;;;;;2.01;66.58;99118.38;7766081;32;40759;-85
2022/11/21 03:43:40;;;;;;;42.05;14.40;;;;;;;2.18;66.40;99129.28;7765555;32;37858;-84
2022/11/21 03:47:56;;;;;;;67.50;14.95;;;;;;;2.41;66.33;99109.63;7765413;32;38028;-84
2022/11/21 03:52:12;;;;;;;109.45;17.30;;;;;;;2.34;66.35;99114.31;7765944;32;39464;-84
2022/11/21 03:56:29;;;;;;;59.58;14.63;;;;;;;2.53;65.85;99096.97;7765547;32;39641;-85
2022/11/21 04:00:46;;;;;;;48.85;13.45;;;;;;;2.60;65.65;99092.31;7765601;32;38515;-85
2022/11/21 04:05:02;;;;;;;86.47;17.02;;;;;;;2.28;66.33;99082.94;7751832;32;37283;-84
2022/11/21 04:09:18;;;;;;;69.32;14.20;;;;;;;2.16;66.25;99075.72;7765784;32;40446;-84
2022/11/21 04:13:34;;;;;;;48.25;14.20;;;;;;;2.25;65.92;99071.59;7764989;32;40741;-84
2022/11/21 04:17:51;;;;;;;70.18;15.68;;;;;;;2.48;65.45;99061.88;7765588;32;37519;-84
2022/11/21 04:22:08;;;;;;;58.85;15.00;;;;;;;1.91;66.80;99059.00;7765587;32;37869;-84
2022/11/21 04:26:24;;;;;;;33.30;15.40;;;;;;;2.52;65.11;99051.44;7765370;32;40094;-84
2022/11/21 04:30:40;;;;;;;56.67;15.30;;;;;;;2.23;65.67;99049.50;7765540;32;40003;-85
2022/11/21 04:34:56;;;;;;;34.60;14.20;;;;;;;2.42;65.09;99063.66;7764461;32;37929;-85
2022/11/21 04:39:12;;;;;;;39.33;13.70;;;;;;;2.53;64.79;99042.34;7765334;32;37350;-84
2022/11/21 04:43:28;;;;;;;37.00;14.73;;;;;;;2.31;65.06;99050.22;7765162;32;39266;-84
2022/11/21 04:47:46;;;;;;;25.70;13.82;;;;;;;2.04;65.76;99045.31;7765169;32;39602;-84
2022/11/21 04:52:02;;;;;;;44.13;13.95;;;;;;;2.20;65.26;99052.66;7764827;32;37938;-84
2022/11/21 04:56:18;;;;;;;48.95;15.25;;;;;;;2.47;64.18;99044.12;7764807;32;37383;-84
2022/11/21 05:00:34;;;;;;;37.20;14.00;;;;;;;2.29;64.56;99046.94;7765311;32;39200;-85
2022/11/21 05:04:51;;;;;;;107.80;16.08;;;;;;;2.37;64.47;99033.13;7764743;32;39581;-84
2022/11/21 05:09:07;;;;;;;89.30;15.00;;;;;;;1.59;66.97;99035.13;7764516;32;38763;-85
2022/11/21 05:13:23;;;;;;;50.28;14.18;;;;;;;1.50;66.68;99029.25;7764148;32;37495;-84
2022/11/21 05:17:39;;;;;;;127.53;17.52;;;;;;;1.84;66.44;99019.59;7764786;32;39553;-84
2022/11/21 05:21:56;;;;;;;156.10;19.90;;;;;;;2.04;65.99;99007.69;7764567;32;39871;-84
2022/11/21 05:26:12;;;;;;;102.00;17.60;;;;;;;2.15;65.36;99022.16;7764534;32;37698;-84
2022/11/21 05:30:28;;;;;;;67.18;15.18;;;;;;;1.88;66.26;99015.41;7764713;32;37247;-84
2022/11/21 05:34:44;;;;;;;51.00;14.87;;;;;;;1.95;65.57;99017.13;7763607;32;40004;-84
2022/11/21 05:39:00;;;;;;;26.87;14.50;;;;;;;2.43;63.69;99010.66;7764633;32;40714;-84
2022/11/21 05:44:02;;;;;;;67.70;15.75;;;;;;;2.08;65.11;99010.72;7764332;32;37619;-84
2022/11/21 05:47:53;;;;;;;87.50;16.05;;;;;;;2.40;64.12;99003.88;7724628;32;37149;-85
2022/11/21 05:52:09;;;;;;;43.15;15.10;;;;;;;2.03;65.94;99014.09;7737360;32;40093;-85
2022/11/21 05:56:25;;;;;;;84.15;15.95;;;;;;;1.99;65.94;99010.25;7755110;32;39839;-85
2022/11/21 06:00:41;;;;;;;65.72;14.57;;;;;;;1.79;66.58;99022.16;7764127;32;37834;-84
2022/11/21 06:04:57;;;;;;;68.85;17.25;;;;;;;2.07;66.47;99015.28;7763558;32;37965;-83
2022/11/21 06:09:14;;;;;;;65.15;15.57;;;;;;;2.05;67.49;99015.53;7764059;32;37382;-83
2022/11/21 06:13:32;;;;;;;110.72;16.23;;;;;;;2.30;66.67;99006.34;7749683;32;39961;-84
2022/11/21 06:17:48;;;;;;;84.75;16.12;;;;;;;2.47;65.76;99016.38;7763687;32;36807;-83
2022/11/21 06:22:04;;;;;;;70.78;15.80;;;;;;;2.62;65.37;99017.53;7749731;32;37978;-83
2022/11/21 06:26:23;;;;;;;36.90;14.70;;;;;;;2.26;66.76;99021.34;7765391;32;39176;-84
2022/11/21 06:30:39;;;;;;;121.70;17.77;;;;;;;2.65;65.59;99026.16;7767455;32;39848;-84
2022/11/21 06:34:56;;;;;;;83.35;14.75;;;;;;;2.25;67.27;99041.22;7766369;32;37846;-84
2022/11/21 06:39:12;;;;;;;64.32;15.40;;;;;;;2.34;66.89;99042.47;7766923;32;37271;-83
2022/11/21 06:43:28;;;;;;;63.90;16.42;;;;;;;2.36;67.18;99047.63;7768230;32;39502;-84
2022/11/21 06:47:44;;;;;;;57.42;16.58;;;;;;;2.30;67.41;99053.97;7766653;32;41147;-85
2022/11/21 06:52:00;;;;;;;47.20;15.00;;;;;;;2.32;67.56;99049.97;7766486;32;38679;-85
2022/11/21 06:56:18;;;;;;;49.53;17.00;;;;;;;2.59;67.23;99058.34;7766884;32;35983;-83
2022/11/21 07:00:34;;;;;;;62.08;16.25;;;;;;;2.62;67.18;99052.50;7766669;32;39777;-84
2022/11/21 07:04:51;;;;;;;90.97;18.48;;;;;;;2.49;68.09;99058.13;7766333;32;39591;-85
2022/11/21 07:09:07;;;;;;;48.33;16.73;;;;;;;2.67;67.47;99061.72;7766577;32;38531;-86
2022/11/21 07:13:43;;;;;;;56.58;16.05;;;;;;;3.04;66.81;99066.78;7765443;32;37576;-85
2022/11/21 07:17:59;;;;;;;173.50;19.58;;;;;;;2.96;66.93;99066.09;7766524;32;39254;-84
2022/11/21 07:22:15;;;;;;;39.83;14.38;;;;;;;2.51;68.16;99071.34;7766148;32;39911;-85
2022/11/21 07:26:31;;;;;;;76.97;15.57;;;;;;;2.81;68.08;99068.47;7766215;32;38669;-84
2022/11/21 07:30:48;;;;;;;40.90;14.95;;;;;;;2.49;69.45;99063.53;7764893;32;37286;-85
2022/11/21 07:35:04;;;;;;;36.85;14.63;;;;;;;2.84;68.33;99070.69;7765571;32;40221;-84
2022/11/21 07:39:20;;;;;;;47.50;14.13;;;;;;;3.19;66.98;99070.56;7760921;32;39854;-84
2022/11/21 07:43:36;;;;;;;112.32;17.75;;;;;;;3.17;67.52;99078.09;7766023;32;38197;-83
2022/11/21 07:48:04;;;;;;;49.70;13.02;;;;;;;2.45;69.80;99081.22;7766092;32;37004;-85
2022/11/21 07:52:20;;;;;;;57.30;14.73;;;;;;;2.99;68.13;99083.66;7765994;32;39326;-85
2022/11/21 07:56:36;;;;;;;45.20;14.80;;;;;;;3.14;67.91;99080.41;7765811;32;39963;-78
2022/11/21 08:00:52;;;;;;;42.65;15.25;;;;;;;2.91;69.18;99090.22;7765533;32;38021;-79
2022/11/21 08:05:08;;;;;;;127.45;18.87;;;;;;;2.80;71.70;99091.06;7765061;32;37175;-83
2022/11/21 08:09:28;;;;;;;137.35;18.90;;;;;;;3.06;69.62;99091.59;7751806;32;39838;-82
2022/11/21 08:13:44;;;;;;;66.22;16.80;;;;;;;2.75;70.30;99099.84;7765095;32;39937;-82
2022/11/21 08:18:11;;;;;;;159.68;19.75;;;;;;;3.35;67.79;99108.56;7765610;32;38461;-83
2022/11/21 08:22:27;;;;;;;87.15;19.23;;;;;;;3.19;68.61;99120.91;7765592;32;37246;-77
2022/11/21 08:26:44;;;;;;;83.12;19.65;;;;;;;2.88;69.71;99122.19;7765373;32;40013;-82
2022/11/21 08:31:03;;;;;;;48.87;17.75;;;;;;;2.38;72.07;99128.91;7765085;32;39970;-83
2022/11/21 08:35:20;;;;;;;105.87;22.23;;;;;;;2.70;71.27;99139.31;7765157;32;38549;-82
2022/11/21 08:39:36;;;;;;;358.63;32.55;;;;;;;2.11;72.73;99142.81;7751564;32;37369;-82
2022/11/21 08:43:52;;;;;;;305.60;27.65;;;;;;;2.13;73.31;99139.91;7765721;32;40140;-82
2022/11/21 08:48:10;;;;;;;191.52;22.60;;;;;;;2.38;72.44;99142.34;7764165;32;40068;-83
2022/11/21 08:52:26;;;;;;;189.85;23.83;;;;;;;1.80;74.70;99152.81;7751448;32;38660;-82
2022/11/21 08:56:42;;;;;;;124.30;21.17;;;;;;;2.40;73.31;99141.09;7764384;32;38429;-85
2022/11/21 09:00:59;;;;;;;44.63;19.17;;;;;;;2.70;71.84;99140.13;7751231;32;38996;-86
2022/11/21 09:05:15;;;;;;;46.70;18.58;;;;;;;2.96;71.21;99146.87;7764790;32;40662;-86
2022/11/21 09:09:32;;;;;;;168.05;21.42;;;;;;;3.14;70.23;99150.44;7764852;32;37952;-88
2022/11/21 09:18:01;;;;;;;209.05;25.20;;;;;;;2.80;71.11;99153.81;7764610;32;37781;-87
2022/11/21 09:18:24;;;;;;;101.90;20.70;;;;;;;3.10;70.74;99152.00;7764936;32;39129;-88
2022/11/21 09:22:41;;;;;;;146.07;22.27;;;;;;;2.88;71.12;99151.78;7764711;32;40566;-88
2022/11/21 09:26:58;;;;;;;78.68;21.73;;;;;;;2.86;71.27;99146.66;7750281;32;37581;-87
2022/11/21 09:31:14;;;;;;;54.25;19.50;;;;;;;2.79;71.28;99148.66;7764600;32;37082;-88
2022/11/21 09:35:30;;;;;;;117.25;20.62;;;;;;;2.91;71.59;99138.69;7764424;32;40275;-87
2022/11/21 09:39:46;;;;;;;65.28;18.95;;;;;;;2.70;72.24;99134.75;7764225;32;39656;-88
2022/11/21 09:44:18;;;;;;;41.55;19.02;;;;;;;3.69;69.70;99120.25;7750641;32;38817;-88
2022/11/21 09:48:47;;;;;;;36.15;17.62;;;;;;;3.60;70.31;99116.28;7748957;32;37263;-85
2022/11/21 09:53:08;;;;;;;38.67;18.02;;;;;;;3.14;71.21;99116.28;7751623;32;39378;-85
2022/11/21 09:57:25;;;;;;;32.88;15.63;;;;;;;3.95;68.92;99096.41;7750881;32;40530;-82
2022/11/21 10:01:50;;;;;;;37.28;18.10;;;;;;;4.23;67.84;99086.56;7750239;32;36467;-85
2022/11/21 10:06:28;;;;;;;34.38;16.67;;;;;;;4.36;68.16;99078.13;7764206;32;37305;-86
2022/11/21 10:10:55;;;;;;;30.95;14.93;;;;;;;4.63;68.67;99055.81;7764061;32;39952;-86
2022/11/21 10:15:48;;;;;;;26.00;12.85;;;;;;;5.10;68.75;99059.88;7763728;32;40613;-81
2022/11/21 10:20:29;;;;;;;32.97;15.40;;;;;;;5.53;74.02;99050.03;7763277;32;38554;-86
2022/11/21 10:24:56;;;;;;;26.90;13.73;;;;;;;6.28;68.85;99031.94;7736654;32;37049;-85
2022/11/21 10:29:25;;;;;;;22.48;12.45;;;;;;;7.53;66.96;99011.19;7736737;32;39384;-85
2022/11/21 10:33:42;;;;;;;16.15;10.00;;;;;;;8.16;59.49;98999.19;7723597;32;39981;-85
2022/11/21 10:38:12;;;;;;;17.95;10.35;;;;;;;8.40;58.66;99002.13;7722791;32;37560;-87
2022/11/21 10:45:15;;;;;;;17.70;10.05;;;;;;;8.04;58.68;98998.69;7736344;32;37220;-87
2022/11/21 10:47:41;;;;;;;22.92;11.55;;;;;;;8.15;58.22;98989.41;7707560;32;40021;-88
2022/11/21 10:52:12;;;;;;;20.67;11.12;;;;;;;7.88;59.21;98997.88;7735986;32;40900;-86
2022/11/21 10:56:32;;;;;;;18.37;10.63;;;;;;;8.50;56.90;98997.75;7735864;32;37885;-87
2022/11/21 11:00:57;;;;;;;20.60;11.65;;;;;;;9.11;55.27;98991.22;7735901;32;37298;-87
2022/11/21 11:05:20;;;;;;;21.70;11.43;;;;;;;9.01;56.78;98987.44;7735691;32;40193;-87
2022/11/21 11:09:37;;;;;;;22.25;11.48;;;;;;;9.63;53.83;98978.88;7735661;32;40562;-86
2022/11/21 11:14:02;;;;;;;21.48;12.20;;;;;;;9.80;53.22;98986.63;7738914;32;38674;-86
2022/11/21 11:18:21;;;;;;;22.17;12.75;;;;;;;9.80;53.19;98980.37;7739430;32;37679;-83
2022/11/21 11:22:37;;;;;;;25.17;13.40;;;;;;;9.08;54.58;98983.62;7762051;32;37360;-86
2022/11/21 11:27:02;;;;;;;21.60;12.25;;;;;;;9.63;54.10;98967.16;7766413;32;39902;-85
2022/11/21 11:31:18;;;;;;;23.42;12.88;;;;;;;9.40;54.99;98964.09;7739831;32;37886;-85
2022/11/21 11:35:35;;;;;;;25.10;13.57;;;;;;;8.72;55.33;98962.06;7765876;32;37267;-84
2022/11/21 11:40:13;;;;;;;26.73;14.55;;;;;;;9.14;55.19;98955.28;7752421;32;39202;-85
2022/11/21 11:50:13;;;;;;;23.05;14.00;;;;;;;8.32;58.09;98945.66;7731637;32;37907;-75
2022/11/21 11:54:37;;;;;;;25.80;13.05;;;;;;;8.33;61.18;98939.13;7754571;32;35450;-85
2022/11/21 11:59:19;;;;;;;25.95;13.30;;;;;;;8.79;57.14;98927.25;7752784;32;40091;-86
2022/11/21 12:03:59;;;;;;;24.63;13.07;;;;;;;8.95;56.39;98926.06;7765364;32;39851;-87
2022/11/21 12:08:20;;;;;;;21.25;11.93;;;;;;;8.79;57.25;98909.03;7753959;32;38804;-87
2022/11/21 12:13:08;;;;;;;22.02;11.77;;;;;;;8.97;56.79;98904.03;7765116;32;38166;-87
2022/11/21 12:17:40;;;;;;;23.08;12.57;;;;;;;8.04;59.08;98906.38;7752525;32;39149;-88
2022/11/21 12:21:58;;;;;;;30.80;13.73;;;;;;;7.82;60.04;98918.37;7765626;32;40832;-84
2022/11/21 12:26:39;;;;;;;21.65;12.35;;;;;;;7.00;64.11;98926.53;7765567;32;39009;-84
2022/11/21 12:31:24;;;;;;;21.37;12.02;;;;;;;8.21;63.00;98912.28;7765704;32;37938;-85
2022/11/21 12:36:15;;;;;;;22.45;13.23;;;;;;;7.75;61.30;98909.72;7749016;32;40365;-84
2022/11/21 12:40:58;;;;;;;26.70;14.33;;;;;;;8.51;60.23;98907.03;7753661;32;39905;-84
2022/11/21 12:45:20;;;;;;;23.62;13.10;;;;;;;9.22;57.25;98889.41;7765559;32;38066;-85
2022/11/21 12:55:09;;;;;;;24.17;12.37;;;;;;;9.43;56.85;98886.53;7757256;32;39371;-87
2022/11/21 12:59:25;;;;;;;22.25;11.77;;;;;;;8.99;57.75;98885.53;7764994;32;40510;-87
2022/11/21 13:03:54;;;;;;;18.98;10.27;;;;;;;9.93;55.67;98881.66;7765095;32;38694;-87
2022/11/21 13:08:11;;;;;;;18.27;10.48;;;;;;;10.42;53.84;98890.66;7765172;32;37504;-87
2022/11/21 13:12:50;;;;;;;19.45;10.65;;;;;;;10.88;52.03;98888.09;7765168;32;39377;-87
2022/11/21 13:17:29;;;;;;;19.37;10.88;;;;;;;11.51;50.83;98887.91;7764608;32;40562;-88
2022/11/21 13:21:51;;;;;;;20.52;11.88;;;;;;;12.00;49.29;98886.47;7764965;32;37907;-87
2022/11/21 13:26:28;;;;;;;20.70;11.05;;;;;;;12.21;47.87;98890.41;7763886;32;37284;-87
2022/11/21 13:30:50;;;;;;;19.90;10.52;;;;;;;13.45;45.79;98879.41;7764990;32;39279;-87
2022/11/21 13:35:18;;;;;;;21.85;12.20;;;;;;;13.78;44.63;98893.63;7762830;32;40040;-87
2022/11/21 13:39:35;;;;;;;22.23;11.98;;;;;;;13.80;44.50;98894.13;7764468;32;37927;-86
2022/11/21 13:44:11;;;;;;;22.62;11.65;;;;;;;13.38;45.67;98892.75;7763938;32;37893;-87
2022/11/21 13:48:39;;;;;;;21.95;12.02;;;;;;;15.26;41.27;98876.62;7752636;32;39330;-87
2022/11/21 13:53:26;;;;;;;20.27;11.43;;;;;;;13.31;44.95;98893.16;7763644;32;40441;-90
2022/11/21 13:58:01;;;;;;;23.67;12.68;;;;;;;12.08;47.49;98901.34;7735692;32;38041;-89
2022/11/21 14:02:26;;;;;;;22.73;12.70;;;;;;;12.08;48.32;98895.87;7764341;32;36926;-89
2022/11/21 14:06:42;;;;;;;23.23;12.60;;;;;;;11.53;49.40;98913.78;7763620;32;40109;-88
2022/11/21 14:11:17;;;;;;;19.52;11.55;;;;;;;12.19;48.24;98900.00;7764012;32;39889;-88
2022/11/21 14:16:09;;;;;;;20.17;11.60;;;;;;;12.99;45.70;98899.66;7751933;32;38652;-88
2022/11/21 14:20:32;;;;;;;22.35;12.55;;;;;;;12.28;47.01;98897.38;7750643;32;36868;-88
2022/11/21 14:24:48;;;;;;;17.52;10.95;;;;;;;14.00;43.60;98897.41;7763383;32;39312;-88
2022/11/21 14:29:26;;;;;;;18.67;11.68;;;;;;;13.17;44.38;98912.38;7749532;32;40845;-87
2022/11/21 14:33:44;;;;;;;22.05;12.20;;;;;;;11.93;47.53;98922.34;7748989;32;37843;-89
2022/11/21 14:38:05;;;;;;;21.12;12.20;;;;;;;10.55;51.67;98927.25;7762996;32;38028;-86
2022/11/21 14:42:21;;;;;;;20.25;10.88;;;;;;;10.24;52.90;98938.50;7763077;32;39313;-87
2022/11/21 14:46:39;;;;;;;21.95;12.48;;;;;;;9.54;55.43;98937.84;7764276;32;40006;-88
2022/11/21 14:50:59;;;;;;;21.42;12.30;;;;;;;9.42;55.52;98936.59;7764192;32;38593;-87
2022/11/21 14:55:24;;;;;;;21.62;12.68;;;;;;;8.97;56.66;98932.03;7750046;32;36393;-88
2022/11/21 14:59:47;;;;;;;21.92;13.07;;;;;;;8.60;57.72;98941.47;7750058;32;39351;-89
2022/11/21 15:04:07;;;;;;;23.30;12.77;;;;;;;7.85;59.85;98944.97;7744798;32;41052;-88
2022/11/21 15:08:23;;;;;;;27.23;14.70;;;;;;;7.98;59.48;98949.00;7766250;32;38500;-88
2022/11/21 15:13:08;;;;;;;24.95;14.15;;;;;;;8.13;58.84;98950.06;7765192;32;38459;-85
2022/11/21 15:17:25;;;;;;;25.17;14.02;;;;;;;7.96;59.61;98953.09;7742945;32;39816;-85
2022/11/21 15:21:45;;;;;;;26.80;15.20;;;;;;;7.72;60.42;98953.66;7750220;32;40652;-86
2022/11/21 15:26:02;;;;;;;25.37;14.57;;;;;;;7.60;60.94;98961.28;7764743;32;38796;-85
2022/11/21 15:30:23;;;;;;;27.37;14.90;;;;;;;7.58;60.69;98955.31;7765066;32;37962;-87
2022/11/21 15:34:39;;;;;;;22.83;13.05;;;;;;;7.93;59.79;98951.72;7766270;32;40043;-88
2022/11/21 15:38:59;;;;;;;24.05;13.15;;;;;;;7.10;62.76;98967.22;7765142;32;40831;-88
2022/11/21 15:43:47;;;;;;;24.80;13.52;;;;;;;6.86;63.72;98985.06;7765243;32;38572;-87
2022/11/21 15:48:05;;;;;;;28.92;15.60;;;;;;;6.85;63.38;98980.75;7753912;32;37343;-87
2022/11/21 15:52:22;;;;;;;26.90;16.08;;;;;;;7.08;62.85;98977.50;7763757;32;38046;-89
2022/11/21 15:56:39;;;;;;;29.00;16.35;;;;;;;7.36;61.99;98969.16;7762229;32;39772;-88
2022/11/21 16:00:55;;;;;;;30.88;17.33;;;;;;;7.13;62.58;98963.97;7773342;32;37415;-88
2022/11/21 16:05:15;;;;;;;31.77;16.02;;;;;;;7.11;62.68;98966.13;7765350;32;37179;-87
2022/11/21 16:09:31;;;;;;;27.90;14.57;;;;;;;6.75;63.93;98959.84;7793090;32;39946;-87
2022/11/21 16:13:49;;;;;;;26.95;14.55;;;;;;;6.95;63.62;98956.34;7792021;32;40715;-86
2022/11/21 16:18:05;;;;;;;25.88;15.30;;;;;;;7.39;61.62;98955.06;7787048;32;37910;-87
2022/11/21 16:22:21;;;;;;;25.35;13.90;;;;;;;7.16;62.71;98957.22;7765111;32;37184;-87
2022/11/21 16:26:38;;;;;;;27.73;14.48;;;;;;;7.14;62.40;98953.97;7765226;32;39404;-86
2022/11/21 16:30:56;;;;;;;22.77;13.68;;;;;;;7.12;62.52;98950.69;7765303;32;39906;-86
2022/11/21 16:35:12;;;;;;;22.73;13.10;;;;;;;6.62;63.90;98958.44;7764194;32;38702;-88
2022/11/21 16:39:29;;;;;;;24.50;13.55;;;;;;;6.87;62.41;98948.75;7765386;32;36999;-87
2022/11/21 16:43:48;;;;;;;23.23;12.93;;;;;;;6.47;63.16;98955.66;7764882;32;39281;-87
2022/11/21 16:48:07;;;;;;;23.80;12.88;;;;;;;6.53;62.80;98965.44;7764589;32;40243;-83
2022/11/21 16:52:25;;;;;;;22.13;13.13;;;;;;;6.62;63.09;98958.44;7764667;32;36149;-85
2022/11/21 16:56:41;;;;;;;25.15;13.50;;;;;;;6.61;63.71;98962.25;7764462;32;36961;-86
2022/11/21 17:00:57;;;;;;;23.23;13.07;;;;;;;6.52;63.69;98966.53;7765138;32;39314;-87
2022/11/21 17:05:14;;;;;;;20.33;12.48;;;;;;;7.20;61.47;98958.28;7763263;32;40025;-91
2022/11/21 17:09:30;;;;;;;22.73;13.88;;;;;;;6.67;63.29;98972.00;7763427;32;38074;-88
2022/11/21 17:13:47;;;;;;;21.20;13.50;;;;;;;6.56;64.05;98975.75;7764788;32;38539;-88
2022/11/21 17:18:03;;;;;;;24.40;13.13;;;;;;;6.57;64.04;98977.38;7763409;32;39283;-87
2022/11/21 17:22:19;;;;;;;27.13;14.40;;;;;;;6.51;64.50;98978.44;7765145;32;40775;-87
2022/11/21 17:26:39;;;;;;;25.42;14.23;;;;;;;6.45;64.88;98968.66;7764742;32;37942;-86
2022/11/21 17:30:56;;;;;;;29.15;16.05;;;;;;;6.37;65.46;98978.13;7765103;32;36888;-86
2022/11/21 17:35:12;;;;;;;27.90;15.32;;;;;;;5.83;67.29;98988.06;7763034;32;39307;-87
2022/11/21 17:39:28;;;;;;;28.10;16.20;;;;;;;6.51;65.74;98997.41;7763575;32;40894;-86
2022/11/21 17:43:45;;;;;;;26.83;15.52;;;;;;;6.33;65.88;98994.06;7764080;32;38704;-87
2022/11/21 17:48:02;;;;;;;30.27;16.42;;;;;;;6.61;65.27;98988.50;7764272;32;38098;-85
2022/11/21 17:52:18;;;;;;;34.05;20.12;;;;;;;6.50;65.37;98993.06;7763872;32;40116;-86
2022/11/21 17:56:36;;;;;;;29.85;17.62;;;;;;;6.80;64.34;98983.44;7764147;32;41033;-85
2022/11/21 18:01:02;;;;;;;28.55;16.83;;;;;;;6.49;65.47;98981.41;7761668;32;37760;-85
2022/11/21 18:05:19;;;;;;;34.55;18.40;;;;;;;6.75;64.75;98989.63;7763833;32;36413;-85
2022/11/21 18:09:35;;;;;;;34.85;17.65;;;;;;;6.86;63.77;98985.06;7762650;32;39338;-85
2022/11/21 18:13:51;;;;;;;30.35;17.42;;;;;;;6.87;63.89;98981.28;7763658;32;40603;-86
2022/11/21 18:18:08;;;;;;;34.08;17.23;;;;;;;7.03;63.35;98972.09;7762664;32;37953;-86
2022/11/21 18:22:24;;;;;;;31.55;18.35;;;;;;;6.71;64.55;98983.94;7765616;32;37233;-84
2022/11/21 18:26:44;;;;;;;29.55;16.62;;;;;;;6.60;64.46;98981.47;7766941;32;39806;-85
2022/11/21 18:31:09;;;;;;;31.12;16.45;;;;;;;6.92;63.27;98970.44;7766797;32;39953;-85
2022/11/21 18:35:28;;;;;;;29.73;17.23;;;;;;;6.82;63.62;98976.66;7752515;32;37790;-86
2022/11/21 18:39:44;;;;;;;29.98;17.08;;;;;;;6.28;65.37;98975.09;7765584;32;37261;-85
2022/11/21 18:44:03;;;;;;;32.17;16.12;;;;;;;6.66;63.90;98981.22;7766178;32;40117;-85
2022/11/21 18:48:19;;;;;;;28.15;15.77;;;;;;;6.99;62.89;98970.19;7765963;32;40643;-84
2022/11/21 18:52:36;;;;;;;32.20;16.25;;;;;;;6.77;63.69;98973.94;7765986;32;37998;-84
2022/11/21 18:56:59;;;;;;;30.05;15.68;;;;;;;6.12;65.71;98973.38;7765836;32;37347;-83
2022/11/21 19:01:21;;;;;;;28.30;16.00;;;;;;;6.32;65.03;98954.53;7766252;32;39393;-84
2022/11/21 19:05:41;;;;;;;32.15;16.70;;;;;;;6.50;64.69;98955.13;7766225;32;40873;-84
2022/11/21 19:09:57;;;;;;;29.55;16.67;;;;;;;6.46;64.54;98960.28;7766497;32;38716;-85
2022/11/21 19:14:33;;;;;;;29.15;16.48;;;;;;;6.16;65.43;98963.69;7766271;32;37540;-86
2022/11/21 19:18:50;;;;;;;31.02;15.77;;;;;;;6.58;63.92;98966.28;7766041;32;40225;-87
2022/11/21 19:23:26;;;;;;;30.92;16.80;;;;;;;6.58;63.88;98960.84;7752933;32;40215;-86
2022/11/21 19:27:42;;;;;;;28.77;15.70;;;;;;;6.26;65.40;98966.44;7766013;32;37636;-85
2022/11/21 19:31:59;;;;;;;38.42;19.40;;;;;;;6.12;65.62;98970.69;7749882;32;37233;-83
2022/11/21 19:36:17;;;;;;;31.58;16.77;;;;;;;6.33;64.77;98966.16;7765361;32;39870;-83
2022/11/21 19:41:11;;;;;;;31.10;17.83;;;;;;;6.29;64.55;98965.88;7752150;32;39995;-82
2022/11/21 19:45:10;;;;;;;31.37;17.52;;;;;;;6.08;64.82;98969.59;7755095;32;37865;-83
2022/11/21 19:49:26;;;;;;;32.88;17.42;;;;;;;6.22;64.83;98975.34;7765280;32;37181;-83
2022/11/21 19:53:44;;;;;;;36.45;17.65;;;;;;;5.96;65.78;98967.88;7765487;32;39385;-83
2022/11/21 19:58:00;;;;;;;32.45;17.33;;;;;;;5.91;65.78;98981.34;7765173;32;40718;-83
2022/11/21 20:02:22;;;;;;;34.42;17.62;;;;;;;6.33;64.57;98975.13;7765333;32;37847;-81
2022/11/21 20:06:41;;;;;;;29.20;16.92;;;;;;;6.05;65.71;98991.75;7765066;32;37359;-82
2022/11/21 20:11:10;;;;;;;32.28;16.98;;;;;;;6.12;65.19;98995.03;7765119;32;40223;-82
2022/11/21 20:15:26;;;;;;;33.53;16.90;;;;;;;5.69;66.74;98996.88;7764878;32;40884;-82
2022/11/21 20:19:42;;;;;;;28.77;15.70;;;;;;;6.16;64.59;98996.16;7764709;32;38620;-84